CFB Trenton
CYTR : now visible

Airfield :











YOU CAN JOIN US ON...

 
LOGIN :

Register | Disclaimer

   EN    FR    IT 

 









Legend :    VFR   Marginal VFR   IFR   Intensive IFR   Very Intensive IFR
Visi :
Ceiling :
>= 8 km
>= 3000ft
5 to 8 km
1000 to 3000 ft
1500m to 5 km
500 to 1000 ft
800 to 1500m
200 to 500 ft
< 800m
< 200 ft
Symbols :   Thunderstorms  Fog  Heavy snow  Heavy precipitations  Wind > 20 kt






- Airport Elevation : 283 ft
- IATA code : YTR


CYTR - CFB Trenton

CURRENT METAR :
  • 112100Z 31013G18KT 15SM VCSH BKN028 BKN086 28/20 A2982 RMK CU5AC2 TCU EMBD SLP099

EXPIRED METARs :
  • 112000Z 25014KT 15SM SCT033 BKN079 BKN250 27/21 A2980 RMK CU4AC2CI2 TCU EMBD SLP092
  • 111900Z 23020G26KT 15SM FEW031 FEW080 BKN250 28/20 A2980 RMK CU2AC1CI4 CC ASOCTD SLP090

TAF TAF CYTR
Valid from the 11 at 18:00 until the 12 at 18:00 UTC


111730Z 1118/1218 22015G25KT P6SM SCT025 BKN100
TEMPO 1118/1121 P6SM -SHRA BKN025
PROB30 1118/1121 VRB20G30KT 1SM TSRA BR FEW010 BKN040CB
FM112100 26015G25KT P6SM SCT030 SCT220
BECMG 1121/1123 29012KT
FM120200 28005KT P6SM SKC
BECMG 1206/1208 VRB03KT
BECMG 1214/1216 22010KT RMK FCST BASED ON AUTO OBS 120200-121000Z. NXT FCST BY 120000Z
CZYZ FIR / North America



MET'MAP, your aeronautical weather chart ! - Copyright ORBIFLY December 2007 - Disclaimer

ORBIFLY MET'MAP TEAM :

Programming & Development : Alexandra Zaïnal
Concept & original design : Baudouin d'Aumeries
Assistance for programming : Marc-Olivier Méhu
Technical & hardware support : Manuel Goepfert

Contact : metmap@orbifly.com




SOURCES & CREDITS :

   NOAA       Earth
Advisory